sensor_id;sensor_type;location;lat;lon;timestamp;P1;durP1;ratioP1;P2;durP2;ratioP2
75427;SDS011;64008;55.612;37.698;2023-04-01T00:02:00;6.38;;;3.17;;
75427;SDS011;64008;55.612;37.698;2023-04-01T00:04:26;6.40;;;3.75;;
75427;SDS011;64008;55.612;37.698;2023-04-01T00:06:51;6.57;;;3.40;;
75427;SDS011;64008;55.612;37.698;2023-04-01T00:09:17;6.15;;;3.00;;
75427;SDS011;64008;55.612;37.698;2023-04-01T00:11:42;7.10;;;3.85;;
75427;SDS011;64008;55.612;37.698;2023-04-01T00:14:09;7.03;;;3.90;;
75427;SDS011;64008;55.612;37.698;2023-04-01T00:16:35;7.22;;;3.15;;
75427;SDS011;64008;55.612;37.698;2023-04-01T00:19:00;5.57;;;3.10;;
75427;SDS011;64008;55.612;37.698;2023-04-01T00:21:26;5.70;;;3.30;;
75427;SDS011;64008;55.612;37.698;2023-04-01T00:23:51;6.82;;;3.13;;
75427;SDS011;64008;55.612;37.698;2023-04-01T00:26:17;6.18;;;2.92;;
75427;SDS011;64008;55.612;37.698;2023-04-01T00:28:45;5.45;;;3.08;;
75427;SDS011;64008;55.612;37.698;2023-04-01T00:31:11;6.32;;;3.30;;
75427;SDS011;64008;55.612;37.698;2023-04-01T00:33:38;5.57;;;2.80;;
75427;SDS011;64008;55.612;37.698;2023-04-01T00:36:23;5.53;;;3.00;;
75427;SDS011;64008;55.612;37.698;2023-04-01T00:38:48;6.95;;;3.13;;
75427;SDS011;64008;55.612;37.698;2023-04-01T00:41:15;6.57;;;2.92;;
75427;SDS011;64008;55.612;37.698;2023-04-01T00:43:43;7.45;;;3.28;;
75427;SDS011;64008;55.612;37.698;2023-04-01T00:46:10;6.55;;;3.17;;
75427;SDS011;64008;55.612;37.698;2023-04-01T00:48:36;9.55;;;3.25;;
75427;SDS011;64008;55.612;37.698;2023-04-01T00:51:06;5.72;;;2.83;;
75427;SDS011;64008;55.612;37.698;2023-04-01T00:53:32;6.15;;;3.08;;
75427;SDS011;64008;55.612;37.698;2023-04-01T00:58:33;4.93;;;2.70;;
75427;SDS011;64008;55.612;37.698;2023-04-01T01:01:01;6.78;;;2.88;;
75427;SDS011;64008;55.612;37.698;2023-04-01T01:03:27;5.18;;;3.20;;
75427;SDS011;64008;55.612;37.698;2023-04-01T01:11:31;6.50;;;2.65;;
75427;SDS011;64008;55.612;37.698;2023-04-01T01:14:09;6.22;;;3.13;;
75427;SDS011;64008;55.612;37.698;2023-04-01T01:16:48;6.28;;;3.13;;
75427;SDS011;64008;55.612;37.698;2023-04-01T01:19:46;5.70;;;2.90;;
75427;SDS011;64008;55.612;37.698;2023-04-01T01:30:58;7.47;;;3.28;;
75427;SDS011;64008;55.612;37.698;2023-04-01T01:33:35;5.65;;;3.20;;
75427;SDS011;64008;55.612;37.698;2023-04-01T01:36:34;5.72;;;3.08;;
75427;SDS011;64008;55.612;37.698;2023-04-01T01:39:05;6.50;;;3.38;;
75427;SDS011;64008;55.612;37.698;2023-04-01T01:41:33;6.13;;;3.28;;
75427;SDS011;64008;55.612;37.698;2023-04-01T01:44:01;6.75;;;3.80;;
75427;SDS011;64008;55.612;37.698;2023-04-01T01:46:29;9.98;;;3.60;;
75427;SDS011;64008;55.612;37.698;2023-04-01T01:48:55;6.22;;;3.28;;
75427;SDS011;64008;55.612;37.698;2023-04-01T01:51:24;7.35;;;3.58;;
75427;SDS011;64008;55.612;37.698;2023-04-01T01:53:52;6.18;;;3.53;;
75427;SDS011;64008;55.612;37.698;2023-04-01T01:56:18;7.10;;;3.47;;
75427;SDS011;64008;55.612;37.698;2023-04-01T01:58:52;6.85;;;3.65;;
75427;SDS011;64008;55.612;37.698;2023-04-01T02:01:26;6.72;;;3.50;;
75427;SDS011;64008;55.612;37.698;2023-04-01T02:03:55;6.80;;;3.83;;
75427;SDS011;64008;55.612;37.698;2023-04-01T02:11:23;6.40;;;3.60;;
75427;SDS011;64008;55.612;37.698;2023-04-01T02:14:13;6.55;;;3.38;;
75427;SDS011;64008;55.612;37.698;2023-04-01T02:19:10;8.07;;;3.83;;
75427;SDS011;64008;55.612;37.698;2023-04-01T02:21:38;6.88;;;3.42;;
75427;SDS011;64008;55.612;37.698;2023-04-01T02:24:08;8.30;;;3.35;;
75427;SDS011;64008;55.612;37.698;2023-04-01T02:26:37;6.90;;;3.83;;
75427;SDS011;64008;55.612;37.698;2023-04-01T02:29:03;7.43;;;3.85;;
75427;SDS011;64008;55.612;37.698;2023-04-01T02:31:31;6.95;;;3.30;;
75427;SDS011;64008;55.612;37.698;2023-04-01T02:33:58;6.72;;;3.75;;
75427;SDS011;64008;55.612;37.698;2023-04-01T02:36:24;8.25;;;3.63;;
75427;SDS011;64008;55.612;37.698;2023-04-01T02:38:50;7.95;;;3.97;;
75427;SDS011;64008;55.612;37.698;2023-04-01T02:41:17;6.82;;;3.55;;
75427;SDS011;64008;55.612;37.698;2023-04-01T02:43:43;8.07;;;3.63;;
75427;SDS011;64008;55.612;37.698;2023-04-01T02:46:08;8.57;;;4.38;;
75427;SDS011;64008;55.612;37.698;2023-04-01T02:48:34;7.88;;;4.20;;
75427;SDS011;64008;55.612;37.698;2023-04-01T02:50:59;8.25;;;4.55;;
75427;SDS011;64008;55.612;37.698;2023-04-01T02:53:25;7.35;;;4.05;;
75427;SDS011;64008;55.612;37.698;2023-04-01T02:55:50;8.88;;;4.28;;
75427;SDS011;64008;55.612;37.698;2023-04-01T02:58:17;6.90;;;3.65;;
75427;SDS011;64008;55.612;37.698;2023-04-01T03:00:43;9.07;;;4.03;;
75427;SDS011;64008;55.612;37.698;2023-04-01T03:03:09;8.82;;;4.50;;
75427;SDS011;64008;55.612;37.698;2023-04-01T03:05:34;8.25;;;4.40;;
75427;SDS011;64008;55.612;37.698;2023-04-01T03:08:00;8.20;;;4.47;;
75427;SDS011;64008;55.612;37.698;2023-04-01T03:10:26;9.85;;;4.43;;
75427;SDS011;64008;55.612;37.698;2023-04-01T03:12:52;8.68;;;4.13;;
75427;SDS011;64008;55.612;37.698;2023-04-01T03:15:17;7.72;;;4.30;;
75427;SDS011;64008;55.612;37.698;2023-04-01T03:17:43;7.82;;;4.25;;
75427;SDS011;64008;55.612;37.698;2023-04-01T03:20:09;8.07;;;4.38;;
75427;SDS011;64008;55.612;37.698;2023-04-01T03:22:35;7.53;;;3.92;;
75427;SDS011;64008;55.612;37.698;2023-04-01T03:25:02;10.35;;;4.72;;
75427;SDS011;64008;55.612;37.698;2023-04-01T03:27:28;9.15;;;4.05;;
75427;SDS011;64008;55.612;37.698;2023-04-01T03:29:54;8.07;;;4.25;;
75427;SDS011;64008;55.612;37.698;2023-04-01T03:32:19;8.40;;;4.30;;
75427;SDS011;64008;55.612;37.698;2023-04-01T03:34:45;9.30;;;4.40;;
75427;SDS011;64008;55.612;37.698;2023-04-01T03:37:10;7.10;;;4.00;;
75427;SDS011;64008;55.612;37.698;2023-04-01T03:39:36;8.07;;;4.30;;
75427;SDS011;64008;55.612;37.698;2023-04-01T03:42:01;8.68;;;3.88;;
75427;SDS011;64008;55.612;37.698;2023-04-01T03:44:31;7.20;;;4.00;;
75427;SDS011;64008;55.612;37.698;2023-04-01T03:46:57;6.75;;;4.13;;
75427;SDS011;64008;55.612;37.698;2023-04-01T03:49:22;7.40;;;4.40;;
75427;SDS011;64008;55.612;37.698;2023-04-01T03:51:48;9.25;;;4.30;;
75427;SDS011;64008;55.612;37.698;2023-04-01T03:54:13;7.03;;;3.83;;
75427;SDS011;64008;55.612;37.698;2023-04-01T03:56:39;8.50;;;4.15;;
75427;SDS011;64008;55.612;37.698;2023-04-01T03:59:05;9.25;;;4.40;;
75427;SDS011;64008;55.612;37.698;2023-04-01T04:01:32;7.78;;;4.30;;
75427;SDS011;64008;55.612;37.698;2023-04-01T04:03:58;8.73;;;4.30;;
75427;SDS011;64008;55.612;37.698;2023-04-01T04:06:24;7.63;;;4.07;;
75427;SDS011;64008;55.612;37.698;2023-04-01T04:08:50;6.80;;;3.55;;
75427;SDS011;64008;55.612;37.698;2023-04-01T04:11:15;7.93;;;3.97;;
75427;SDS011;64008;55.612;37.698;2023-04-01T04:13:41;6.57;;;3.60;;
75427;SDS011;64008;55.612;37.698;2023-04-01T04:16:08;8.52;;;4.38;;
75427;SDS011;64008;55.612;37.698;2023-04-01T04:18:35;7.40;;;3.58;;
75427;SDS011;64008;55.612;37.698;2023-04-01T04:21:01;8.02;;;3.97;;
75427;SDS011;64008;55.612;37.698;2023-04-01T04:23:27;8.48;;;4.10;;
75427;SDS011;64008;55.612;37.698;2023-04-01T04:25:58;9.02;;;4.38;;
75427;SDS011;64008;55.612;37.698;2023-04-01T04:28:31;9.30;;;3.83;;
75427;SDS011;64008;55.612;37.698;2023-04-01T04:30:58;7.82;;;4.18;;
75427;SDS011;64008;55.612;37.698;2023-04-01T04:33:24;9.55;;;4.57;;
75427;SDS011;64008;55.612;37.698;2023-04-01T04:35:50;9.63;;;4.05;;
75427;SDS011;64008;55.612;37.698;2023-04-01T04:38:16;8.52;;;4.13;;
75427;SDS011;64008;55.612;37.698;2023-04-01T04:40:42;8.73;;;4.30;;
75427;SDS011;64008;55.612;37.698;2023-04-01T04:43:11;8.85;;;4.57;;
75427;SDS011;64008;55.612;37.698;2023-04-01T04:45:37;9.10;;;4.18;;
75427;SDS011;64008;55.612;37.698;2023-04-01T04:48:03;8.90;;;4.07;;
75427;SDS011;64008;55.612;37.698;2023-04-01T04:50:28;9.10;;;4.18;;
75427;SDS011;64008;55.612;37.698;2023-04-01T04:52:54;6.88;;;3.63;;
75427;SDS011;64008;55.612;37.698;2023-04-01T04:55:20;7.28;;;3.67;;
75427;SDS011;64008;55.612;37.698;2023-04-01T04:57:45;8.23;;;4.13;;
75427;SDS011;64008;55.612;37.698;2023-04-01T05:00:11;8.52;;;3.90;;
75427;SDS011;64008;55.612;37.698;2023-04-01T05:02:37;8.55;;;4.05;;
75427;SDS011;64008;55.612;37.698;2023-04-01T05:05:03;7.82;;;3.83;;
75427;SDS011;64008;55.612;37.698;2023-04-01T05:07:29;8.38;;;4.22;;
75427;SDS011;64008;55.612;37.698;2023-04-01T05:09:54;7.28;;;3.90;;
75427;SDS011;64008;55.612;37.698;2023-04-01T05:12:20;7.13;;;4.18;;
75427;SDS011;64008;55.612;37.698;2023-04-01T05:14:45;6.95;;;3.88;;
75427;SDS011;64008;55.612;37.698;2023-04-01T05:17:12;8.73;;;4.28;;
75427;SDS011;64008;55.612;37.698;2023-04-01T05:19:38;7.85;;;4.40;;
75427;SDS011;64008;55.612;37.698;2023-04-01T05:22:04;9.50;;;4.60;;
75427;SDS011;64008;55.612;37.698;2023-04-01T05:24:30;8.13;;;4.18;;
75427;SDS011;64008;55.612;37.698;2023-04-01T05:26:56;7.70;;;4.25;;
75427;SDS011;64008;55.612;37.698;2023-04-01T05:29:22;10.07;;;4.90;;
75427;SDS011;64008;55.612;37.698;2023-04-01T05:34:14;8.55;;;4.63;;
75427;SDS011;64008;55.612;37.698;2023-04-01T05:36:40;9.38;;;5.15;;
75427;SDS011;64008;55.612;37.698;2023-04-01T05:39:07;8.13;;;4.82;;
75427;SDS011;64008;55.612;37.698;2023-04-01T05:41:36;8.75;;;5.10;;
75427;SDS011;64008;55.612;37.698;2023-04-01T05:44:03;8.82;;;4.70;;
75427;SDS011;64008;55.612;37.698;2023-04-01T05:46:29;9.20;;;4.70;;
75427;SDS011;64008;55.612;37.698;2023-04-01T05:48:55;9.05;;;4.72;;
75427;SDS011;64008;55.612;37.698;2023-04-01T05:51:21;9.63;;;4.78;;
75427;SDS011;64008;55.612;37.698;2023-04-01T05:53:46;8.80;;;4.50;;
75427;SDS011;64008;55.612;37.698;2023-04-01T05:56:12;7.82;;;4.30;;
75427;SDS011;64008;55.612;37.698;2023-04-01T05:58:37;9.15;;;4.70;;
75427;SDS011;64008;55.612;37.698;2023-04-01T06:01:04;8.30;;;4.50;;
75427;SDS011;64008;55.612;37.698;2023-04-01T06:03:34;8.82;;;4.65;;
75427;SDS011;64008;55.612;37.698;2023-04-01T06:05:59;7.95;;;4.57;;
75427;SDS011;64008;55.612;37.698;2023-04-01T06:08:26;8.18;;;4.43;;
75427;SDS011;64008;55.612;37.698;2023-04-01T06:36:59;10.10;;;4.63;;
75427;SDS011;64008;55.612;37.698;2023-04-01T06:42:23;9.85;;;4.63;;
75427;SDS011;64008;55.612;37.698;2023-04-01T06:50:17;9.40;;;4.60;;
75427;SDS011;64008;55.612;37.698;2023-04-01T06:55:32;9.68;;;4.75;;
75427;SDS011;64008;55.612;37.698;2023-04-01T06:58:05;9.70;;;4.93;;
75427;SDS011;64008;55.612;37.698;2023-04-01T07:00:40;9.52;;;4.88;;
75427;SDS011;64008;55.612;37.698;2023-04-01T07:05:58;9.20;;;4.88;;
75427;SDS011;64008;55.612;37.698;2023-04-01T07:08:29;8.73;;;5.07;;
75427;SDS011;64008;55.612;37.698;2023-04-01T07:11:03;10.55;;;4.95;;
75427;SDS011;64008;55.612;37.698;2023-04-01T07:13:44;9.85;;;5.05;;
75427;SDS011;64008;55.612;37.698;2023-04-01T07:16:20;10.77;;;5.07;;
75427;SDS011;64008;55.612;37.698;2023-04-01T07:21:19;8.95;;;4.63;;
75427;SDS011;64008;55.612;37.698;2023-04-01T07:23:48;10.27;;;4.90;;
75427;SDS011;64008;55.612;37.698;2023-04-01T07:26:17;9.75;;;5.28;;
75427;SDS011;64008;55.612;37.698;2023-04-01T07:28:45;11.02;;;4.93;;
75427;SDS011;64008;55.612;37.698;2023-04-01T07:33:42;14.05;;;5.18;;
75427;SDS011;64008;55.612;37.698;2023-04-01T07:36:22;26.88;;;4.70;;
75427;SDS011;64008;55.612;37.698;2023-04-01T07:41:53;27.80;;;5.68;;
75427;SDS011;64008;55.612;37.698;2023-04-01T07:44:54;14.75;;;5.72;;
75427;SDS011;64008;55.612;37.698;2023-04-01T08:01:46;10.32;;;5.22;;
75427;SDS011;64008;55.612;37.698;2023-04-01T08:07:00;13.15;;;5.93;;
75427;SDS011;64008;55.612;37.698;2023-04-01T08:09:38;10.57;;;4.75;;
75427;SDS011;64008;55.612;37.698;2023-04-01T08:12:27;11.88;;;5.50;;
75427;SDS011;64008;55.612;37.698;2023-04-01T08:20:50;11.82;;;4.85;;
75427;SDS011;64008;55.612;37.698;2023-04-01T08:23:23;9.63;;;4.78;;
75427;SDS011;64008;55.612;37.698;2023-04-01T08:26:04;11.82;;;5.43;;
75427;SDS011;64008;55.612;37.698;2023-04-01T08:28:52;11.07;;;5.75;;
75427;SDS011;64008;55.612;37.698;2023-04-01T08:31:28;12.13;;;6.18;;
75427;SDS011;64008;55.612;37.698;2023-04-01T08:33:56;13.10;;;5.90;;
75427;SDS011;64008;55.612;37.698;2023-04-01T08:36:34;12.02;;;6.05;;
75427;SDS011;64008;55.612;37.698;2023-04-01T08:39:04;15.00;;;5.93;;
75427;SDS011;64008;55.612;37.698;2023-04-01T08:42:16;13.40;;;5.80;;
75427;SDS011;64008;55.612;37.698;2023-04-01T08:47:54;10.52;;;5.18;;
75427;SDS011;64008;55.612;37.698;2023-04-01T08:58:52;12.25;;;5.70;;
75427;SDS011;64008;55.612;37.698;2023-04-01T09:15:54;8.63;;;4.50;;
75427;SDS011;64008;55.612;37.698;2023-04-01T09:35:42;7.95;;;3.88;;
75427;SDS011;64008;55.612;37.698;2023-04-01T10:19:37;6.97;;;3.30;;
75427;SDS011;64008;55.612;37.698;2023-04-01T10:25:11;7.38;;;3.17;;
75427;SDS011;64008;55.612;37.698;2023-04-01T10:28:06;7.82;;;3.15;;
75427;SDS011;64008;55.612;37.698;2023-04-01T11:25:11;6.90;;;2.55;;
75427;SDS011;64008;55.612;37.698;2023-04-01T11:36:56;9.02;;;3.10;;
75427;SDS011;64008;55.612;37.698;2023-04-01T11:44:32;6.32;;;2.78;;
75427;SDS011;64008;55.612;37.698;2023-04-01T11:49:49;7.32;;;3.50;;
75427;SDS011;64008;55.612;37.698;2023-04-01T11:52:47;9.23;;;3.20;;
75427;SDS011;64008;55.612;37.698;2023-04-01T11:55:25;10.98;;;3.75;;
75427;SDS011;64008;55.612;37.698;2023-04-01T12:06:30;6.45;;;3.00;;
75427;SDS011;64008;55.612;37.698;2023-04-01T12:11:51;8.05;;;3.53;;
75427;SDS011;64008;55.612;37.698;2023-04-01T12:14:34;10.77;;;4.05;;
75427;SDS011;64008;55.612;37.698;2023-04-01T12:20:02;11.40;;;3.42;;
75427;SDS011;64008;55.612;37.698;2023-04-01T12:26:10;7.65;;;3.13;;
75427;SDS011;64008;55.612;37.698;2023-04-01T12:28:58;8.65;;;3.13;;
75427;SDS011;64008;55.612;37.698;2023-04-01T12:34:58;8.77;;;3.15;;
75427;SDS011;64008;55.612;37.698;2023-04-01T13:03:40;7.40;;;2.80;;
75427;SDS011;64008;55.612;37.698;2023-04-01T13:16:35;8.90;;;3.10;;
75427;SDS011;64008;55.612;37.698;2023-04-01T13:19:16;6.57;;;2.40;;
75427;SDS011;64008;55.612;37.698;2023-04-01T13:21:57;7.60;;;3.15;;
75427;SDS011;64008;55.612;37.698;2023-04-01T13:43:14;6.85;;;2.63;;
75427;SDS011;64008;55.612;37.698;2023-04-01T14:02:34;8.63;;;3.22;;
75427;SDS011;64008;55.612;37.698;2023-04-01T14:25:28;7.35;;;2.88;;
75427;SDS011;64008;55.612;37.698;2023-04-01T14:50:17;7.47;;;3.47;;
75427;SDS011;64008;55.612;37.698;2023-04-01T14:55:58;6.78;;;3.20;;
75427;SDS011;64008;55.612;37.698;2023-04-01T14:58:46;8.05;;;4.40;;
75427;SDS011;64008;55.612;37.698;2023-04-01T15:06:45;6.80;;;3.78;;
75427;SDS011;64008;55.612;37.698;2023-04-01T15:09:29;8.60;;;4.40;;
75427;SDS011;64008;55.612;37.698;2023-04-01T15:12:17;9.13;;;4.45;;
75427;SDS011;64008;55.612;37.698;2023-04-01T15:17:27;8.73;;;4.20;;
75427;SDS011;64008;55.612;37.698;2023-04-01T15:23:04;8.10;;;4.32;;
75427;SDS011;64008;55.612;37.698;2023-04-01T15:28:47;9.27;;;4.47;;
75427;SDS011;64008;55.612;37.698;2023-04-01T15:34:28;8.90;;;4.30;;
75427;SDS011;64008;55.612;37.698;2023-04-01T15:36:59;7.45;;;3.63;;
75427;SDS011;64008;55.612;37.698;2023-04-01T15:48:11;8.18;;;4.28;;
75427;SDS011;64008;55.612;37.698;2023-04-01T15:51:01;7.97;;;4.28;;
75427;SDS011;64008;55.612;37.698;2023-04-01T16:29:10;9.32;;;4.32;;
75427;SDS011;64008;55.612;37.698;2023-04-01T16:36:46;10.18;;;4.47;;
75427;SDS011;64008;55.612;37.698;2023-04-01T16:47:46;9.63;;;3.78;;
75427;SDS011;64008;55.612;37.698;2023-04-01T16:55:33;8.98;;;4.30;;
75427;SDS011;64008;55.612;37.698;2023-04-01T16:58:25;6.93;;;3.38;;
75427;SDS011;64008;55.612;37.698;2023-04-01T17:01:03;9.25;;;4.72;;
75427;SDS011;64008;55.612;37.698;2023-04-01T17:03:42;9.27;;;3.83;;
75427;SDS011;64008;55.612;37.698;2023-04-01T17:06:17;7.40;;;3.55;;
75427;SDS011;64008;55.612;37.698;2023-04-01T17:11:45;8.55;;;3.63;;
75427;SDS011;64008;55.612;37.698;2023-04-01T17:14:29;6.78;;;3.40;;
75427;SDS011;64008;55.612;37.698;2023-04-01T17:19:48;6.32;;;3.10;;
75427;SDS011;64008;55.612;37.698;2023-04-01T17:35:58;8.77;;;3.35;;
75427;SDS011;64008;55.612;37.698;2023-04-01T17:46:57;8.73;;;3.03;;
75427;SDS011;64008;55.612;37.698;2023-04-01T18:00:24;6.95;;;3.67;;
75427;SDS011;64008;55.612;37.698;2023-04-01T18:14:29;8.10;;;4.30;;
75427;SDS011;64008;55.612;37.698;2023-04-01T18:25:44;7.95;;;3.53;;
75427;SDS011;64008;55.612;37.698;2023-04-01T18:31:12;7.00;;;3.65;;
75427;SDS011;64008;55.612;37.698;2023-04-01T18:36:54;8.52;;;3.95;;
75427;SDS011;64008;55.612;37.698;2023-04-01T18:39:35;8.43;;;3.25;;
75427;SDS011;64008;55.612;37.698;2023-04-01T18:50:56;9.20;;;3.60;;
75427;SDS011;64008;55.612;37.698;2023-04-01T18:53:31;7.50;;;3.55;;
75427;SDS011;64008;55.612;37.698;2023-04-01T18:56:11;7.82;;;3.50;;
75427;SDS011;64008;55.612;37.698;2023-04-01T18:58:48;8.60;;;3.63;;
75427;SDS011;64008;55.612;37.698;2023-04-01T19:01:42;8.45;;;3.63;;
75427;SDS011;64008;55.612;37.698;2023-04-01T19:09:50;10.07;;;3.75;;
75427;SDS011;64008;55.612;37.698;2023-04-01T19:12:25;7.28;;;3.65;;
75427;SDS011;64008;55.612;37.698;2023-04-01T19:24:15;8.00;;;3.75;;
75427;SDS011;64008;55.612;37.698;2023-04-01T19:26:49;7.88;;;3.65;;
75427;SDS011;64008;55.612;37.698;2023-04-01T19:32:08;9.10;;;3.83;;
75427;SDS011;64008;55.612;37.698;2023-04-01T20:07:52;8.75;;;4.47;;
75427;SDS011;64008;55.612;37.698;2023-04-01T20:16:11;9.00;;;4.22;;
75427;SDS011;64008;55.612;37.698;2023-04-01T20:21:19;9.15;;;4.47;;
75427;SDS011;64008;55.612;37.698;2023-04-01T20:23:54;8.93;;;4.50;;
75427;SDS011;64008;55.612;37.698;2023-04-01T20:26:25;9.23;;;4.18;;
75427;SDS011;64008;55.612;37.698;2023-04-01T20:29:40;9.18;;;4.63;;
75427;SDS011;64008;55.612;37.698;2023-04-01T20:34:50;8.30;;;4.45;;
75427;SDS011;64008;55.612;37.698;2023-04-01T20:37:46;9.98;;;4.90;;
75427;SDS011;64008;55.612;37.698;2023-04-01T20:46:18;9.07;;;4.20;;
75427;SDS011;64008;55.612;37.698;2023-04-01T20:51:26;9.80;;;4.35;;
75427;SDS011;64008;55.612;37.698;2023-04-01T21:07:54;11.18;;;4.25;;
75427;SDS011;64008;55.612;37.698;2023-04-01T21:15:42;9.55;;;4.78;;
75427;SDS011;64008;55.612;37.698;2023-04-01T21:18:36;9.93;;;4.65;;
75427;SDS011;64008;55.612;37.698;2023-04-01T21:33:28;10.77;;;4.57;;
75427;SDS011;64008;55.612;37.698;2023-04-01T21:41:41;8.35;;;4.10;;
75427;SDS011;64008;55.612;37.698;2023-04-01T21:47:22;8.30;;;4.30;;
75427;SDS011;64008;55.612;37.698;2023-04-01T22:07:41;10.20;;;4.13;;
75427;SDS011;64008;55.612;37.698;2023-04-01T22:18:51;10.07;;;4.13;;
75427;SDS011;64008;55.612;37.698;2023-04-01T22:21:20;7.95;;;3.95;;
75427;SDS011;64008;55.612;37.698;2023-04-01T22:26:37;9.75;;;4.25;;
75427;SDS011;64008;55.612;37.698;2023-04-01T22:29:17;9.45;;;4.10;;
75427;SDS011;64008;55.612;37.698;2023-04-01T22:32:23;9.18;;;4.40;;
75427;SDS011;64008;55.612;37.698;2023-04-01T22:42:57;10.18;;;4.97;;
75427;SDS011;64008;55.612;37.698;2023-04-01T22:47:57;11.43;;;3.97;;
75427;SDS011;64008;55.612;37.698;2023-04-01T22:56:20;8.85;;;4.43;;
75427;SDS011;64008;55.612;37.698;2023-04-01T22:58:50;10.65;;;5.05;;
75427;SDS011;64008;55.612;37.698;2023-04-01T23:03:53;11.25;;;4.53;;
75427;SDS011;64008;55.612;37.698;2023-04-01T23:06:33;11.85;;;4.78;;
75427;SDS011;64008;55.612;37.698;2023-04-01T23:09:14;10.10;;;4.47;;
75427;SDS011;64008;55.612;37.698;2023-04-01T23:11:48;9.40;;;4.43;;
75427;SDS011;64008;55.612;37.698;2023-04-01T23:15:08;9.82;;;4.63;;
75427;SDS011;64008;55.612;37.698;2023-04-01T23:17:42;14.15;;;5.13;;
75427;SDS011;64008;55.612;37.698;2023-04-01T23:22:45;10.85;;;4.57;;
75427;SDS011;64008;55.612;37.698;2023-04-01T23:30:51;12.45;;;6.00;;
75427;SDS011;64008;55.612;37.698;2023-04-01T23:33:30;14.15;;;6.85;;
75427;SDS011;64008;55.612;37.698;2023-04-01T23:38:38;10.77;;;5.20;;
75427;SDS011;64008;55.612;37.698;2023-04-01T23:41:06;12.63;;;5.35;;
75427;SDS011;64008;55.612;37.698;2023-04-01T23:43:42;12.32;;;4.97;;
75427;SDS011;64008;55.612;37.698;2023-04-01T23:46:10;10.65;;;5.28;;
75427;SDS011;64008;55.612;37.698;2023-04-01T23:48:42;10.05;;;4.68;;
75427;SDS011;64008;55.612;37.698;2023-04-01T23:51:48;12.38;;;5.65;;
75427;SDS011;64008;55.612;37.698;2023-04-01T23:57:31;14.70;;;6.78;;
